createdAt,value
2017-11-12T00:00:37.396Z,8.30
2017-11-12T00:03:03.716Z,8.30
2017-11-12T00:05:29.997Z,8.30
2017-11-12T00:07:56.291Z,8.30
2017-11-12T00:10:22.579Z,8.30
2017-11-12T00:12:49.602Z,8.20
2017-11-12T00:15:15.926Z,8.30
2017-11-12T00:17:42.313Z,8.20
2017-11-12T00:20:08.619Z,8.20
2017-11-12T00:22:34.888Z,8.20
2017-11-12T00:25:01.167Z,8.20
2017-11-12T00:27:28.199Z,8.20
2017-11-12T00:29:54.493Z,8.20
2017-11-12T00:32:20.834Z,8.20
2017-11-12T00:34:47.122Z,8.20
2017-11-12T00:37:13.407Z,8.20
2017-11-12T00:39:39.955Z,8.20
2017-11-12T00:42:06.268Z,8.20
2017-11-12T00:44:32.552Z,8.10
2017-11-12T00:46:58.841Z,8.10
2017-11-12T00:49:25.131Z,8.10
2017-11-12T00:51:51.411Z,8.20
2017-11-12T00:54:17.712Z,8.20
2017-11-12T00:56:44.032Z,8.20
2017-11-12T00:59:10.348Z,8.20
2017-11-12T01:01:36.676Z,8.30
2017-11-12T01:04:02.967Z,8.30
2017-11-12T01:06:30.023Z,8.30
2017-11-12T01:08:57.088Z,8.20
2017-11-12T01:11:23.422Z,8.20
2017-11-12T01:13:49.685Z,8.20
2017-11-12T01:16:15.981Z,8.20
2017-11-12T01:18:42.251Z,8.20
2017-11-12T01:21:08.547Z,8.20
2017-11-12T01:23:34.865Z,8.20
2017-11-12T01:26:01.152Z,8.20
2017-11-12T01:28:27.448Z,8.20
2017-11-12T01:30:53.785Z,8.20
2017-11-12T01:33:20.099Z,8.20
2017-11-12T01:35:46.370Z,8.20
2017-11-12T01:38:12.698Z,8.20
2017-11-12T01:40:38.973Z,8.20
2017-11-12T01:43:05.245Z,8.20
2017-11-12T01:45:31.865Z,8.20
2017-11-12T01:47:58.147Z,8.20
2017-11-12T01:50:24.417Z,8.20
2017-11-12T01:52:50.738Z,8.20
2017-11-12T01:55:17.754Z,8.20
2017-11-12T01:57:44.811Z,8.20
2017-11-12T02:00:12.195Z,8.20
2017-11-12T02:02:38.504Z,8.20
2017-11-12T02:05:04.862Z,8.20
2017-11-12T02:07:31.194Z,8.20
2017-11-12T02:09:57.505Z,8.20
2017-11-12T02:12:23.830Z,8.20
2017-11-12T02:14:50.149Z,8.20
2017-11-12T02:17:17.183Z,8.10
2017-11-12T02:19:44.280Z,8.10
2017-11-12T02:22:10.611Z,8.10
2017-11-12T02:24:36.945Z,7.90
2017-11-12T02:27:03.589Z,7.80
2017-11-12T02:29:29.949Z,7.70
2017-11-12T02:31:56.325Z,7.60
2017-11-12T02:34:22.649Z,7.50
2017-11-12T02:36:49.002Z,7.50
2017-11-12T02:39:15.313Z,7.50
2017-11-12T02:41:41.668Z,7.40
2017-11-12T02:44:07.999Z,7.40
2017-11-12T02:46:34.304Z,7.30
2017-11-12T02:49:00.619Z,7.20
2017-11-12T02:51:27.655Z,7.00
2017-11-12T02:53:54.724Z,6.90
2017-11-12T02:56:21.108Z,6.90
2017-11-12T02:58:47.415Z,6.80
2017-11-12T03:01:14.458Z,6.60
2017-11-12T03:03:40.789Z,6.60
2017-11-12T03:06:07.066Z,6.50
2017-11-12T03:08:33.355Z,6.50
2017-11-12T03:10:59.628Z,6.50
2017-11-12T03:13:26.695Z,6.40
2017-11-12T03:15:53.703Z,6.40
2017-11-12T03:18:20.039Z,6.40
2017-11-12T03:20:46.417Z,6.30
2017-11-12T03:23:12.782Z,6.30
2017-11-12T03:25:39.123Z,6.30
2017-11-12T03:28:05.438Z,6.30
2017-11-12T03:30:31.753Z,6.20
2017-11-12T03:32:58.039Z,6.30
2017-11-12T03:35:24.288Z,6.20
2017-11-12T03:37:50.602Z,6.20
2017-11-12T03:40:16.881Z,6.20
2017-11-12T03:42:43.148Z,6.20
2017-11-12T03:45:10.203Z,6.20
2017-11-12T03:47:37.226Z,6.20
2017-11-12T03:50:03.532Z,6.20
2017-11-12T03:52:29.821Z,6.20
2017-11-12T03:54:56.861Z,6.20
2017-11-12T03:57:23.923Z,6.20
2017-11-12T03:59:50.221Z,6.20
2017-11-12T04:02:16.509Z,6.20
2017-11-12T04:04:42.825Z,6.20
2017-11-12T04:07:09.101Z,6.20
2017-11-12T04:09:35.777Z,6.20
2017-11-12T04:12:02.826Z,6.30
2017-11-12T04:14:29.872Z,6.30
2017-11-12T04:16:56.228Z,6.30
2017-11-12T04:19:22.523Z,6.30
2017-11-12T04:21:49.543Z,6.20
2017-11-12T04:24:15.832Z,6.20
2017-11-12T04:26:42.125Z,6.10
2017-11-12T04:29:08.383Z,6.10
2017-11-12T04:31:34.666Z,6.10
2017-11-12T04:34:00.944Z,6.00
2017-11-12T04:36:27.207Z,6.00
2017-11-12T04:38:53.739Z,6.00
2017-11-12T04:41:20.027Z,6.00
2017-11-12T04:43:46.308Z,6.00
2017-11-12T04:46:12.616Z,5.90
2017-11-12T04:48:38.868Z,6.00
2017-11-12T04:51:05.435Z,5.90
2017-11-12T04:53:32.448Z,5.90
2017-11-12T04:55:58.727Z,5.90
2017-11-12T04:58:25.034Z,5.90
2017-11-12T05:00:51.333Z,5.90
2017-11-12T05:03:17.627Z,5.90
2017-11-12T05:05:43.967Z,5.90
2017-11-12T05:08:10.246Z,5.90
2017-11-12T05:10:36.529Z,5.90
2017-11-12T05:13:02.826Z,5.90
2017-11-12T05:15:29.846Z,5.90
2017-11-12T05:17:56.134Z,5.90
2017-11-12T05:20:22.387Z,5.90
2017-11-12T05:22:48.671Z,6.00
2017-11-12T05:25:15.688Z,6.00
2017-11-12T05:27:41.972Z,6.00
2017-11-12T05:30:09.243Z,6.00
2017-11-12T05:32:35.526Z,6.00
2017-11-12T05:35:02.538Z,6.40
2017-11-12T05:37:28.803Z,6.40
2017-11-12T05:39:55.090Z,6.70
2017-11-12T05:42:21.325Z,7.00
2017-11-12T05:44:47.612Z,7.20
2017-11-12T05:47:13.890Z,7.40
2017-11-12T05:49:40.200Z,7.50
2017-11-12T05:52:06.488Z,7.70
2017-11-12T05:54:32.718Z,7.80
2017-11-12T05:56:59.003Z,7.90
2017-11-12T05:59:25.260Z,8.20
2017-11-12T06:01:52.289Z,8.80
2017-11-12T06:04:18.577Z,8.80
2017-11-12T06:06:44.855Z,9.10
2017-11-12T06:09:11.907Z,9.50
2017-11-12T06:11:38.968Z,9.30
2017-11-12T06:14:05.291Z,9.30
2017-11-12T06:16:31.811Z,8.90
2017-11-12T06:18:58.126Z,8.50
2017-11-12T06:21:24.467Z,8.20
2017-11-12T06:23:51.538Z,7.70
2017-11-12T06:26:17.854Z,7.70
2017-11-12T06:28:44.851Z,7.30
2017-11-12T06:31:11.357Z,7.30
2017-11-12T06:33:38.362Z,7.20
2017-11-12T06:36:04.637Z,7.30
2017-11-12T06:38:30.945Z,7.10
2017-11-12T06:40:57.963Z,6.90
2017-11-12T06:43:25.750Z,6.80
2017-11-12T06:45:52.024Z,6.80
2017-11-12T06:48:18.302Z,6.70
2017-11-12T06:50:44.564Z,6.70
2017-11-12T06:53:10.846Z,6.60
2017-11-12T06:55:37.136Z,6.60
2017-11-12T06:58:03.402Z,6.60
2017-11-12T07:00:29.980Z,6.70
2017-11-12T07:02:56.986Z,6.70
2017-11-12T07:05:23.238Z,6.60
2017-11-12T07:07:50.273Z,6.70
2017-11-12T07:10:16.552Z,6.60
2017-11-12T07:12:42.855Z,6.70
2017-11-12T07:15:09.906Z,6.70
2017-11-12T07:17:36.928Z,6.80
2017-11-12T07:20:03.218Z,6.80
2017-11-12T07:22:29.525Z,6.80
2017-11-12T07:24:55.829Z,6.90
2017-11-12T07:27:22.835Z,6.70
2017-11-12T07:29:49.106Z,6.70
2017-11-12T07:32:16.165Z,6.60
2017-11-12T07:34:42.467Z,6.60
2017-11-12T07:37:08.790Z,6.60
2017-11-12T07:39:35.023Z,6.50
2017-11-12T07:42:01.286Z,6.40
2017-11-12T07:44:27.572Z,6.30
2017-11-12T07:46:53.858Z,6.20
2017-11-12T07:49:20.158Z,6.20
2017-11-12T07:51:47.181Z,6.10
2017-11-12T07:54:13.454Z,6.10
2017-11-12T07:56:39.749Z,6.10
2017-11-12T07:59:06.035Z,6.00
2017-11-12T08:01:32.395Z,6.10
2017-11-12T08:03:58.674Z,6.00
2017-11-12T08:06:24.975Z,6.00
2017-11-12T08:08:51.283Z,6.00
2017-11-12T08:11:17.576Z,6.00
2017-11-12T08:13:43.878Z,6.00
2017-11-12T08:16:10.869Z,6.20
2017-11-12T08:18:37.142Z,6.20
2017-11-12T08:21:03.434Z,6.40
2017-11-12T08:23:29.730Z,6.40
2017-11-12T08:25:56.040Z,6.30
2017-11-12T08:28:23.078Z,6.20
2017-11-12T08:30:49.388Z,6.20
2017-11-12T08:33:15.710Z,6.10
2017-11-12T08:35:42.069Z,6.10
2017-11-12T08:38:08.390Z,6.20
2017-11-12T08:40:34.648Z,6.20
2017-11-12T08:43:01.732Z,6.90
2017-11-12T08:45:28.151Z,6.90
2017-11-12T08:47:55.214Z,7.70
2017-11-12T08:50:21.570Z,7.70
2017-11-12T08:52:48.699Z,8.30
2017-11-12T08:55:15.008Z,8.30
2017-11-12T08:57:49.924Z,8.60
2017-11-12T09:00:16.247Z,8.60
2017-11-12T09:02:43.296Z,8.50
2017-11-12T09:05:09.637Z,8.50
2017-11-12T09:07:35.935Z,8.30
2017-11-12T09:10:02.214Z,8.10
2017-11-12T09:12:28.517Z,7.90
2017-11-12T09:14:55.566Z,7.60
2017-11-12T09:17:22.609Z,7.40
2017-11-12T09:19:49.626Z,7.30
2017-11-12T09:22:15.893Z,7.30
2017-11-12T09:24:42.199Z,7.30
2017-11-12T09:27:08.511Z,7.20
2017-11-12T09:29:34.815Z,7.20
2017-11-12T09:32:01.113Z,7.20
2017-11-12T09:34:27.433Z,7.20
2017-11-12T09:36:53.724Z,7.20
2017-11-12T09:39:20.011Z,7.20
2017-11-12T09:41:47.067Z,7.20
2017-11-12T09:44:13.349Z,7.20
2017-11-12T09:46:39.659Z,7.20
2017-11-12T09:49:05.973Z,7.20
2017-11-12T09:51:33.019Z,7.00
2017-11-12T09:53:59.317Z,7.00
2017-11-12T09:56:25.617Z,7.00
2017-11-12T09:58:51.937Z,7.00
2017-11-12T10:01:19.699Z,7.00
2017-11-12T10:03:45.998Z,7.00
2017-11-12T10:06:12.268Z,7.00
2017-11-12T10:08:38.811Z,7.10
2017-11-12T10:11:05.828Z,7.00
2017-11-12T10:13:32.088Z,6.90
2017-11-12T10:15:59.128Z,6.80
2017-11-12T10:18:25.403Z,6.80
2017-11-12T10:20:51.649Z,6.80
2017-11-12T10:23:17.952Z,6.70
2017-11-12T10:25:44.245Z,6.70
2017-11-12T10:28:10.525Z,6.70
2017-11-12T10:30:36.818Z,6.70
2017-11-12T10:33:03.138Z,6.70
2017-11-12T10:35:29.493Z,6.80
2017-11-12T10:37:56.170Z,6.90
2017-11-12T10:40:22.491Z,6.90
2017-11-12T10:42:48.778Z,6.90
2017-11-12T10:45:15.807Z,6.80
2017-11-12T10:47:42.108Z,6.80
2017-11-12T10:50:08.428Z,6.90
2017-11-12T10:52:34.932Z,7.10
2017-11-12T10:55:01.218Z,7.20
2017-11-12T10:57:27.495Z,7.40
2017-11-12T10:59:54.835Z,7.70
2017-11-12T11:02:21.882Z,7.80
2017-11-12T11:04:48.862Z,7.90
2017-11-12T11:07:15.174Z,7.90
2017-11-12T11:09:41.504Z,7.90
2017-11-12T11:12:07.766Z,8.00
2017-11-12T11:14:34.055Z,8.10
2017-11-12T11:17:01.109Z,8.10
2017-11-12T11:19:27.381Z,8.10
2017-11-12T11:21:53.694Z,8.20
2017-11-12T11:24:19.986Z,8.30
2017-11-12T11:26:46.993Z,8.40
2017-11-12T11:29:13.284Z,8.40
2017-11-12T11:31:39.613Z,8.40
2017-11-12T11:34:06.640Z,8.30
2017-11-12T11:36:32.961Z,8.30
2017-11-12T11:38:59.964Z,8.30
2017-11-12T11:41:26.273Z,8.30
2017-11-12T11:43:52.628Z,8.30
2017-11-12T11:46:18.874Z,8.30
2017-11-12T11:48:45.166Z,8.30
2017-11-12T11:51:11.475Z,8.30
2017-11-12T11:53:37.795Z,8.30
2017-11-12T11:56:04.829Z,8.20
2017-11-12T11:58:31.151Z,8.20
2017-11-12T12:00:57.438Z,8.20
2017-11-12T12:03:23.763Z,8.20
2017-11-12T12:05:50.115Z,8.10
2017-11-12T12:08:16.405Z,8.10
2017-11-12T12:10:42.693Z,8.00
2017-11-12T12:13:09.012Z,8.00
2017-11-12T12:15:35.299Z,8.00
2017-11-12T12:18:01.640Z,8.00
2017-11-12T12:20:27.944Z,8.00
2017-11-12T12:22:55.030Z,8.00
2017-11-12T12:25:21.377Z,8.00
2017-11-12T12:27:47.648Z,8.10
2017-11-12T12:30:15.160Z,8.20
2017-11-12T12:32:42.266Z,8.20
2017-11-12T12:35:09.419Z,8.20
2017-11-12T12:37:35.800Z,8.20
2017-11-12T12:40:02.148Z,8.30
2017-11-12T12:42:28.479Z,8.30
2017-11-12T12:44:54.863Z,8.40
2017-11-12T12:47:21.179Z,8.40
2017-11-12T12:49:47.506Z,8.40
2017-11-12T12:52:13.820Z,8.40
2017-11-12T12:54:40.952Z,8.30
2017-11-12T12:57:07.275Z,8.30
2017-11-12T12:59:33.598Z,8.20
2017-11-12T13:01:59.896Z,8.10
2017-11-12T13:04:26.250Z,8.10
2017-11-12T13:06:52.623Z,8.00
2017-11-12T13:09:19.715Z,8.00
2017-11-12T13:11:46.063Z,8.00
2017-11-12T13:14:12.457Z,8.00
2017-11-12T13:16:39.865Z,7.90
2017-11-12T13:19:06.256Z,7.90
2017-11-12T13:21:32.651Z,7.90
2017-11-12T13:23:59.786Z,7.90
2017-11-12T13:26:26.488Z,7.90
2017-11-12T13:28:52.920Z,7.90
2017-11-12T13:31:19.641Z,7.90
2017-11-12T13:33:45.946Z,8.00
2017-11-12T13:36:13.084Z,8.00
2017-11-12T13:38:39.455Z,8.00
2017-11-12T13:41:05.790Z,8.00
2017-11-12T13:43:32.087Z,8.00
2017-11-12T13:45:59.130Z,8.10
2017-11-12T13:48:25.424Z,8.10
2017-11-12T13:50:51.755Z,8.10
2017-11-12T13:53:18.111Z,8.00
2017-11-12T13:55:44.456Z,8.00
2017-11-12T13:58:10.797Z,8.10
2017-11-12T14:00:37.290Z,8.00
2017-11-12T14:03:03.625Z,8.00
2017-11-12T14:05:29.953Z,8.00
2017-11-12T14:07:56.301Z,8.00
2017-11-12T14:10:22.599Z,8.00
2017-11-12T14:12:48.914Z,8.00
2017-11-12T14:15:15.295Z,8.00
2017-11-12T14:17:42.345Z,8.00
2017-11-12T14:20:09.411Z,8.00
2017-11-12T14:22:36.655Z,8.10
2017-11-12T14:25:03.092Z,8.10
2017-11-12T14:27:30.155Z,8.10
2017-11-12T14:29:56.442Z,8.10
2017-11-12T14:32:22.767Z,8.20
2017-11-12T14:34:49.073Z,8.20
2017-11-12T14:37:15.434Z,8.20
2017-11-12T14:39:41.771Z,8.20
2017-11-12T14:42:08.094Z,8.30
2017-11-12T14:44:34.451Z,8.30
2017-11-12T14:47:01.478Z,8.20
2017-11-12T14:49:27.772Z,8.20
2017-11-12T14:51:54.096Z,8.30
2017-11-12T14:54:20.419Z,8.30
2017-11-12T14:56:46.817Z,8.20
2017-11-12T14:59:13.879Z,8.20
2017-11-12T15:01:40.203Z,8.20
2017-11-12T15:04:06.562Z,8.20
2017-11-12T15:06:32.929Z,8.20
2017-11-12T15:08:59.279Z,8.10
2017-11-12T15:11:25.655Z,8.10
2017-11-12T15:13:52.066Z,8.10
2017-11-12T15:16:18.455Z,8.10
2017-11-12T15:18:44.765Z,8.10
2017-11-12T15:21:11.082Z,8.10
2017-11-12T15:23:37.402Z,8.10
2017-11-12T15:26:03.729Z,8.20
2017-11-12T15:28:30.049Z,8.20
2017-11-12T15:30:56.392Z,8.20
2017-11-12T15:33:22.704Z,8.20
2017-11-12T15:35:49.826Z,8.20
2017-11-12T15:38:16.254Z,8.20
2017-11-12T15:40:42.566Z,8.20
2017-11-12T15:43:08.929Z,8.20
2017-11-12T15:45:35.238Z,8.20
2017-11-12T15:48:01.556Z,8.20
2017-11-12T15:50:27.925Z,8.20
2017-11-12T15:52:55.000Z,8.10
2017-11-12T15:55:22.069Z,8.10
2017-11-12T15:57:48.389Z,8.10
2017-11-12T16:00:14.752Z,8.10
2017-11-12T16:02:41.086Z,8.10
2017-11-12T16:05:07.499Z,8.10
2017-11-12T16:07:33.779Z,8.10
2017-11-12T16:10:00.137Z,8.10
2017-11-12T16:12:26.436Z,8.10
2017-11-12T16:14:52.784Z,8.10
2017-11-12T16:17:19.187Z,8.10
2017-11-12T16:19:45.512Z,8.00
2017-11-12T16:22:11.815Z,8.00
2017-11-12T16:24:38.406Z,8.10
2017-11-12T16:27:04.791Z,7.90
2017-11-12T16:29:31.152Z,7.70
2017-11-12T16:31:57.525Z,7.40
2017-11-12T16:34:24.569Z,6.90
2017-11-12T16:36:50.980Z,6.90
2017-11-12T16:39:18.408Z,6.70
2017-11-12T16:41:44.763Z,6.70
2017-11-12T16:44:11.876Z,6.60
2017-11-12T16:46:38.361Z,6.50
2017-11-12T16:49:04.711Z,6.50
2017-11-12T16:51:31.072Z,6.40
2017-11-12T16:53:57.439Z,6.40
2017-11-12T16:56:24.521Z,6.40
2017-11-12T16:58:51.053Z,6.30
2017-11-12T17:01:17.538Z,6.30
2017-11-12T17:03:43.914Z,6.30
2017-11-12T17:06:10.705Z,6.30
2017-11-12T17:08:37.019Z,6.20
2017-11-12T17:11:03.465Z,6.20
2017-11-12T17:13:30.671Z,6.10
2017-11-12T17:15:57.079Z,6.10
2017-11-12T17:18:24.272Z,6.00
2017-11-12T17:20:50.623Z,6.00
2017-11-12T17:23:17.007Z,6.00
2017-11-12T17:25:43.397Z,6.00
2017-11-12T17:28:09.728Z,5.90
2017-11-12T17:30:36.094Z,5.90
2017-11-12T17:33:02.419Z,5.90
2017-11-12T17:35:29.514Z,5.80
2017-11-12T17:37:56.109Z,5.80
2017-11-12T17:40:22.415Z,5.70
2017-11-12T17:42:48.736Z,5.70
2017-11-12T17:45:15.101Z,5.60
2017-11-12T17:47:41.460Z,5.60
2017-11-12T17:50:07.809Z,5.50
2017-11-12T17:52:34.251Z,5.40
2017-11-12T17:55:00.661Z,5.40
2017-11-12T17:57:27.035Z,5.40
2017-11-12T17:59:53.412Z,5.40
2017-11-12T18:02:19.809Z,5.40
2017-11-12T18:04:46.883Z,5.30
2017-11-12T18:07:13.275Z,5.30
2017-11-12T18:09:39.640Z,5.30
2017-11-12T18:12:06.011Z,5.30
2017-11-12T18:14:32.388Z,5.30
2017-11-12T18:16:59.509Z,5.30
2017-11-12T18:19:25.956Z,5.20
2017-11-12T18:21:52.351Z,5.20
2017-11-12T18:24:18.733Z,5.20
2017-11-12T18:26:45.112Z,5.10
2017-11-12T18:29:11.501Z,5.10
2017-11-12T18:31:37.877Z,5.10
2017-11-12T18:34:04.269Z,5.10
2017-11-12T18:36:31.417Z,5.10
2017-11-12T18:38:57.846Z,5.00
2017-11-12T18:41:25.034Z,5.10
2017-11-12T18:43:51.484Z,5.10
2017-11-12T18:46:17.885Z,5.00
2017-11-12T18:48:44.300Z,5.00
2017-11-12T18:51:13.336Z,5.00
2017-11-12T18:53:39.725Z,4.90
2017-11-12T18:56:06.936Z,5.00
2017-11-12T18:58:33.360Z,4.90
2017-11-12T19:01:14.708Z,4.90
2017-11-12T19:03:47.894Z,4.90
2017-11-12T19:06:21.140Z,4.90
2017-11-12T19:08:47.565Z,4.90
2017-11-12T19:11:14.010Z,4.90
2017-11-12T19:13:40.473Z,4.90
2017-11-12T19:16:07.655Z,4.90
2017-11-12T19:18:34.869Z,4.90
2017-11-12T19:21:02.046Z,4.90
2017-11-12T19:23:30.316Z,4.90
2017-11-12T19:25:56.691Z,4.90
2017-11-12T19:28:27.106Z,4.80
2017-11-12T19:30:53.474Z,4.80
2017-11-12T19:33:19.884Z,4.80
2017-11-12T19:35:46.561Z,4.80
2017-11-12T19:38:13.697Z,4.70
2017-11-12T19:40:40.071Z,4.70
2017-11-12T19:43:06.476Z,4.60
2017-11-12T19:45:33.622Z,4.60
2017-11-12T19:48:00.756Z,4.60
2017-11-12T19:50:27.142Z,4.60
2017-11-12T19:52:53.526Z,4.50
2017-11-12T19:55:20.691Z,4.50
2017-11-12T19:57:47.811Z,4.50
2017-11-12T20:00:14.269Z,4.40
2017-11-12T20:02:41.429Z,4.40
2017-11-12T20:05:07.846Z,4.30
2017-11-12T20:07:35.001Z,4.20
2017-11-12T20:10:02.196Z,4.20
2017-11-12T20:12:29.507Z,4.20
2017-11-12T20:14:55.900Z,4.20
2017-11-12T20:17:22.261Z,4.20
2017-11-12T20:19:49.421Z,4.20
2017-11-12T20:22:16.612Z,4.10
2017-11-12T20:24:42.985Z,4.10
2017-11-12T20:27:09.393Z,4.10
2017-11-12T20:29:35.789Z,4.10
2017-11-12T20:32:02.178Z,4.10
2017-11-12T20:34:28.617Z,4.00
2017-11-12T20:36:55.791Z,4.00
2017-11-12T20:39:22.197Z,4.00
2017-11-12T20:41:48.572Z,4.00
2017-11-12T20:44:14.990Z,4.00
2017-11-12T20:46:41.425Z,4.00
2017-11-12T20:49:07.861Z,4.00
2017-11-12T20:51:34.275Z,4.00
2017-11-12T20:54:01.459Z,3.90
2017-11-12T20:56:27.860Z,3.90
2017-11-12T20:58:55.014Z,3.90
2017-11-12T21:01:22.210Z,3.90
2017-11-12T21:03:49.369Z,3.90
2017-11-12T21:06:15.768Z,3.90
2017-11-12T21:08:42.212Z,3.90
2017-11-12T21:11:08.641Z,3.90
2017-11-12T21:13:35.048Z,3.90
2017-11-12T21:16:02.307Z,3.90
2017-11-12T21:18:28.707Z,3.90
2017-11-12T21:20:55.161Z,3.90
2017-11-12T21:23:23.204Z,3.80
2017-11-12T21:25:49.626Z,3.80
2017-11-12T21:28:20.972Z,3.90
2017-11-12T21:30:47.414Z,3.90
2017-11-12T21:33:19.767Z,3.90
2017-11-12T21:35:46.124Z,3.90
2017-11-12T21:38:12.477Z,3.80
2017-11-12T21:40:40.622Z,3.90
2017-11-12T21:43:07.017Z,3.80
2017-11-12T21:45:33.460Z,3.90
2017-11-12T21:47:59.825Z,3.90
2017-11-12T21:50:26.184Z,3.80
2017-11-12T21:52:53.273Z,3.90
2017-11-12T21:55:19.634Z,3.90
2017-11-12T21:57:46.002Z,3.90
2017-11-12T22:00:12.350Z,3.90
2017-11-12T22:02:38.616Z,3.90
2017-11-12T22:05:04.969Z,3.90
2017-11-12T22:07:31.302Z,3.90
2017-11-12T22:09:58.393Z,3.90
2017-11-12T22:12:24.673Z,3.90
2017-11-12T22:14:50.945Z,3.90
2017-11-12T22:17:17.255Z,3.90
2017-11-12T22:19:43.542Z,3.90
2017-11-12T22:22:09.836Z,3.90
2017-11-12T22:24:36.162Z,4.00
2017-11-12T22:27:02.427Z,4.00
2017-11-12T22:29:28.750Z,4.00
2017-11-12T22:31:55.081Z,4.00
2017-11-12T22:34:21.361Z,4.00
2017-11-12T22:36:48.377Z,4.00
2017-11-12T22:39:14.654Z,4.00
2017-11-12T22:41:41.670Z,3.90
2017-11-12T22:44:07.933Z,3.90
2017-11-12T22:46:34.207Z,3.90
2017-11-12T22:49:00.521Z,3.90
2017-11-12T22:51:26.814Z,3.90
2017-11-12T22:53:53.127Z,3.90
2017-11-12T22:56:20.158Z,3.90
2017-11-12T22:58:46.426Z,3.90
2017-11-12T23:01:12.752Z,3.80
2017-11-12T23:03:39.042Z,3.80
2017-11-12T23:06:05.303Z,3.80
2017-11-12T23:08:32.338Z,3.70
2017-11-12T23:10:59.412Z,3.70
2017-11-12T23:13:25.697Z,3.70
2017-11-12T23:15:52.019Z,3.70
2017-11-12T23:18:18.316Z,3.70
2017-11-12T23:20:44.572Z,3.70
2017-11-12T23:23:11.235Z,3.60
2017-11-12T23:25:37.541Z,3.60
2017-11-12T23:28:03.883Z,3.60
2017-11-12T23:30:30.980Z,3.60
2017-11-12T23:32:57.274Z,3.50
2017-11-12T23:35:23.586Z,3.50
2017-11-12T23:37:49.848Z,3.50
2017-11-12T23:40:16.866Z,3.50
2017-11-12T23:42:43.168Z,3.40
2017-11-12T23:45:09.416Z,3.40
2017-11-12T23:47:35.691Z,3.40
2017-11-12T23:50:02.031Z,3.40
2017-11-12T23:52:28.315Z,3.40
2017-11-12T23:54:54.623Z,3.30
2017-11-12T23:57:20.888Z,3.30
2017-11-12T23:59:47.910Z,3.30
